sensor_id;sensor_type;location;lat;lon;timestamp;P1;durP1;ratioP1;P2;durP2;ratioP2
21337;SDS011;72379;50.880;4.350;2024-03-06T00:01:15;12.33;;;6.67;;
21337;SDS011;72379;50.880;4.350;2024-03-06T00:03:40;10.87;;;6.43;;
21337;SDS011;72379;50.880;4.350;2024-03-06T00:06:06;12.07;;;7.07;;
21337;SDS011;72379;50.880;4.350;2024-03-06T00:08:32;13.37;;;6.80;;
21337;SDS011;72379;50.880;4.350;2024-03-06T00:10:58;11.17;;;6.33;;
21337;SDS011;72379;50.880;4.350;2024-03-06T00:13:24;12.67;;;7.03;;
21337;SDS011;72379;50.880;4.350;2024-03-06T00:15:49;10.10;;;6.47;;
21337;SDS011;72379;50.880;4.350;2024-03-06T00:18:15;12.53;;;6.20;;
21337;SDS011;72379;50.880;4.350;2024-03-06T00:20:41;12.70;;;7.23;;
21337;SDS011;72379;50.880;4.350;2024-03-06T00:23:08;9.53;;;6.53;;
21337;SDS011;72379;50.880;4.350;2024-03-06T00:25:35;11.43;;;6.60;;
21337;SDS011;72379;50.880;4.350;2024-03-06T00:28:01;10.87;;;6.50;;
21337;SDS011;72379;50.880;4.350;2024-03-06T00:30:27;9.27;;;6.30;;
21337;SDS011;72379;50.880;4.350;2024-03-06T00:32:52;10.30;;;6.30;;
21337;SDS011;72379;50.880;4.350;2024-03-06T00:35:18;11.63;;;6.90;;
21337;SDS011;72379;50.880;4.350;2024-03-06T00:37:46;10.97;;;6.40;;
21337;SDS011;72379;50.880;4.350;2024-03-06T00:40:12;10.07;;;6.27;;
21337;SDS011;72379;50.880;4.350;2024-03-06T00:42:38;10.07;;;6.30;;
21337;SDS011;72379;50.880;4.350;2024-03-06T00:45:06;11.10;;;6.43;;
21337;SDS011;72379;50.880;4.350;2024-03-06T00:47:32;9.80;;;6.37;;
21337;SDS011;72379;50.880;4.350;2024-03-06T00:49:59;14.33;;;7.17;;
21337;SDS011;72379;50.880;4.350;2024-03-06T00:52:25;12.13;;;6.67;;
21337;SDS011;72379;50.880;4.350;2024-03-06T00:54:51;11.43;;;5.90;;
21337;SDS011;72379;50.880;4.350;2024-03-06T00:57:16;10.20;;;6.73;;
21337;SDS011;72379;50.880;4.350;2024-03-06T00:59:42;8.97;;;6.10;;
21337;SDS011;72379;50.880;4.350;2024-03-06T01:02:08;10.80;;;6.67;;
21337;SDS011;72379;50.880;4.350;2024-03-06T01:04:34;11.27;;;6.70;;
21337;SDS011;72379;50.880;4.350;2024-03-06T01:07:01;12.30;;;6.73;;
21337;SDS011;72379;50.880;4.350;2024-03-06T01:09:27;13.03;;;6.70;;
21337;SDS011;72379;50.880;4.350;2024-03-06T01:11:54;11.20;;;6.73;;
21337;SDS011;72379;50.880;4.350;2024-03-06T01:14:19;10.17;;;6.80;;
21337;SDS011;72379;50.880;4.350;2024-03-06T01:16:45;9.27;;;6.17;;
21337;SDS011;72379;50.880;4.350;2024-03-06T01:19:12;10.67;;;6.47;;
21337;SDS011;72379;50.880;4.350;2024-03-06T01:21:38;11.03;;;6.23;;
21337;SDS011;72379;50.880;4.350;2024-03-06T01:24:04;10.07;;;6.37;;
21337;SDS011;72379;50.880;4.350;2024-03-06T01:26:30;12.10;;;6.70;;
21337;SDS011;72379;50.880;4.350;2024-03-06T01:28:55;10.20;;;6.40;;
21337;SDS011;72379;50.880;4.350;2024-03-06T01:31:21;12.87;;;7.03;;
21337;SDS011;72379;50.880;4.350;2024-03-06T01:33:47;11.23;;;6.60;;
21337;SDS011;72379;50.880;4.350;2024-03-06T01:36:13;9.83;;;6.50;;
21337;SDS011;72379;50.880;4.350;2024-03-06T01:38:39;11.77;;;7.40;;
21337;SDS011;72379;50.880;4.350;2024-03-06T01:41:06;11.40;;;6.80;;
21337;SDS011;72379;50.880;4.350;2024-03-06T01:43:36;11.23;;;7.33;;
21337;SDS011;72379;50.880;4.350;2024-03-06T01:46:04;11.33;;;7.00;;
21337;SDS011;72379;50.880;4.350;2024-03-06T01:48:29;10.17;;;6.73;;
21337;SDS011;72379;50.880;4.350;2024-03-06T01:50:57;12.47;;;6.77;;
21337;SDS011;72379;50.880;4.350;2024-03-06T01:53:26;12.83;;;6.87;;
21337;SDS011;72379;50.880;4.350;2024-03-06T01:55:56;13.97;;;6.80;;
21337;SDS011;72379;50.880;4.350;2024-03-06T01:58:23;11.17;;;6.67;;
21337;SDS011;72379;50.880;4.350;2024-03-06T02:00:49;10.83;;;6.53;;
21337;SDS011;72379;50.880;4.350;2024-03-06T02:03:15;10.07;;;6.17;;
21337;SDS011;72379;50.880;4.350;2024-03-06T02:05:44;12.87;;;7.07;;
21337;SDS011;72379;50.880;4.350;2024-03-06T02:08:10;15.77;;;7.63;;
21337;SDS011;72379;50.880;4.350;2024-03-06T02:10:37;13.80;;;7.33;;
21337;SDS011;72379;50.880;4.350;2024-03-06T02:13:02;13.90;;;7.33;;
21337;SDS011;72379;50.880;4.350;2024-03-06T02:15:28;12.03;;;7.20;;
21337;SDS011;72379;50.880;4.350;2024-03-06T02:17:54;11.03;;;7.03;;
21337;SDS011;72379;50.880;4.350;2024-03-06T02:20:25;11.50;;;7.50;;
21337;SDS011;72379;50.880;4.350;2024-03-06T02:22:51;13.23;;;7.70;;
21337;SDS011;72379;50.880;4.350;2024-03-06T02:25:17;11.77;;;6.90;;
21337;SDS011;72379;50.880;4.350;2024-03-06T02:27:44;13.07;;;7.40;;
21337;SDS011;72379;50.880;4.350;2024-03-06T02:30:10;12.17;;;7.27;;
21337;SDS011;72379;50.880;4.350;2024-03-06T02:32:36;10.70;;;6.93;;
21337;SDS011;72379;50.880;4.350;2024-03-06T02:35:02;13.83;;;7.17;;
21337;SDS011;72379;50.880;4.350;2024-03-06T02:37:28;11.13;;;7.13;;
21337;SDS011;72379;50.880;4.350;2024-03-06T02:39:54;12.33;;;7.17;;
21337;SDS011;72379;50.880;4.350;2024-03-06T02:42:20;17.67;;;7.40;;
21337;SDS011;72379;50.880;4.350;2024-03-06T02:44:46;13.63;;;7.47;;
21337;SDS011;72379;50.880;4.350;2024-03-06T02:47:12;17.53;;;8.20;;
21337;SDS011;72379;50.880;4.350;2024-03-06T02:49:38;14.37;;;7.50;;
21337;SDS011;72379;50.880;4.350;2024-03-06T02:52:05;13.07;;;7.77;;
21337;SDS011;72379;50.880;4.350;2024-03-06T02:54:30;12.80;;;7.47;;
21337;SDS011;72379;50.880;4.350;2024-03-06T02:56:57;14.33;;;7.67;;
21337;SDS011;72379;50.880;4.350;2024-03-06T02:59:23;13.77;;;7.27;;
21337;SDS011;72379;50.880;4.350;2024-03-06T03:01:49;13.23;;;7.40;;
21337;SDS011;72379;50.880;4.350;2024-03-06T03:04:15;11.47;;;7.20;;
21337;SDS011;72379;50.880;4.350;2024-03-06T03:06:40;17.17;;;8.13;;
21337;SDS011;72379;50.880;4.350;2024-03-06T03:09:06;12.50;;;7.40;;
21337;SDS011;72379;50.880;4.350;2024-03-06T03:11:37;18.47;;;7.83;;
21337;SDS011;72379;50.880;4.350;2024-03-06T03:14:03;12.43;;;7.60;;
21337;SDS011;72379;50.880;4.350;2024-03-06T03:16:29;13.60;;;7.13;;
21337;SDS011;72379;50.880;4.350;2024-03-06T03:18:57;12.10;;;7.50;;
21337;SDS011;72379;50.880;4.350;2024-03-06T03:21:24;12.27;;;7.60;;
21337;SDS011;72379;50.880;4.350;2024-03-06T03:23:49;12.80;;;7.73;;
21337;SDS011;72379;50.880;4.350;2024-03-06T03:26:15;14.47;;;7.93;;
21337;SDS011;72379;50.880;4.350;2024-03-06T03:28:41;12.57;;;8.00;;
21337;SDS011;72379;50.880;4.350;2024-03-06T03:31:07;15.83;;;8.07;;
21337;SDS011;72379;50.880;4.350;2024-03-06T03:33:40;12.53;;;7.90;;
21337;SDS011;72379;50.880;4.350;2024-03-06T03:36:06;12.03;;;7.50;;
21337;SDS011;72379;50.880;4.350;2024-03-06T03:38:32;13.20;;;7.80;;
21337;SDS011;72379;50.880;4.350;2024-03-06T03:41:01;16.03;;;8.00;;
21337;SDS011;72379;50.880;4.350;2024-03-06T03:43:29;14.00;;;8.10;;
21337;SDS011;72379;50.880;4.350;2024-03-06T03:45:57;13.37;;;7.43;;
21337;SDS011;72379;50.880;4.350;2024-03-06T03:48:22;14.50;;;8.47;;
21337;SDS011;72379;50.880;4.350;2024-03-06T03:50:48;12.80;;;7.77;;
21337;SDS011;72379;50.880;4.350;2024-03-06T03:53:14;17.00;;;8.80;;
21337;SDS011;72379;50.880;4.350;2024-03-06T03:55:41;12.17;;;7.57;;
21337;SDS011;72379;50.880;4.350;2024-03-06T03:58:07;13.87;;;8.37;;
21337;SDS011;72379;50.880;4.350;2024-03-06T04:00:33;17.13;;;8.53;;
21337;SDS011;72379;50.880;4.350;2024-03-06T04:02:59;15.67;;;8.37;;
21337;SDS011;72379;50.880;4.350;2024-03-06T04:05:27;15.03;;;8.17;;
21337;SDS011;72379;50.880;4.350;2024-03-06T04:07:53;14.27;;;8.53;;
21337;SDS011;72379;50.880;4.350;2024-03-06T04:10:20;12.73;;;8.20;;
21337;SDS011;72379;50.880;4.350;2024-03-06T04:12:46;17.80;;;8.93;;
21337;SDS011;72379;50.880;4.350;2024-03-06T04:15:11;16.93;;;9.23;;
21337;SDS011;72379;50.880;4.350;2024-03-06T04:17:37;14.20;;;8.27;;
21337;SDS011;72379;50.880;4.350;2024-03-06T04:20:03;17.43;;;8.20;;
21337;SDS011;72379;50.880;4.350;2024-03-06T04:22:31;16.17;;;8.70;;
21337;SDS011;72379;50.880;4.350;2024-03-06T04:24:57;15.57;;;8.97;;
21337;SDS011;72379;50.880;4.350;2024-03-06T04:27:24;14.20;;;8.87;;
21337;SDS011;72379;50.880;4.350;2024-03-06T04:29:50;17.30;;;9.23;;
21337;SDS011;72379;50.880;4.350;2024-03-06T04:32:17;20.20;;;9.43;;
21337;SDS011;72379;50.880;4.350;2024-03-06T04:34:43;21.33;;;9.30;;
21337;SDS011;72379;50.880;4.350;2024-03-06T04:37:09;16.80;;;8.67;;
21337;SDS011;72379;50.880;4.350;2024-03-06T04:39:34;16.60;;;9.20;;
21337;SDS011;72379;50.880;4.350;2024-03-06T04:42:00;13.33;;;8.43;;
21337;SDS011;72379;50.880;4.350;2024-03-06T04:44:26;17.60;;;9.60;;
21337;SDS011;72379;50.880;4.350;2024-03-06T04:46:52;21.40;;;10.40;;
21337;SDS011;72379;50.880;4.350;2024-03-06T04:49:18;18.97;;;9.57;;
21337;SDS011;72379;50.880;4.350;2024-03-06T04:51:43;16.70;;;9.40;;
21337;SDS011;72379;50.880;4.350;2024-03-06T04:54:09;16.90;;;9.00;;
21337;SDS011;72379;50.880;4.350;2024-03-06T04:56:35;25.93;;;9.30;;
21337;SDS011;72379;50.880;4.350;2024-03-06T05:01:37;19.73;;;8.60;;
21337;SDS011;72379;50.880;4.350;2024-03-06T05:04:03;15.87;;;8.67;;
21337;SDS011;72379;50.880;4.350;2024-03-06T05:06:29;16.63;;;9.13;;
21337;SDS011;72379;50.880;4.350;2024-03-06T05:08:54;17.03;;;9.03;;
21337;SDS011;72379;50.880;4.350;2024-03-06T05:11:20;19.30;;;9.70;;
21337;SDS011;72379;50.880;4.350;2024-03-06T05:13:46;15.33;;;9.13;;
21337;SDS011;72379;50.880;4.350;2024-03-06T05:16:12;18.40;;;8.27;;
21337;SDS011;72379;50.880;4.350;2024-03-06T05:18:38;16.47;;;8.60;;
21337;SDS011;72379;50.880;4.350;2024-03-06T05:21:04;15.10;;;8.70;;
21337;SDS011;72379;50.880;4.350;2024-03-06T05:23:30;17.57;;;9.73;;
21337;SDS011;72379;50.880;4.350;2024-03-06T05:25:56;20.10;;;9.47;;
21337;SDS011;72379;50.880;4.350;2024-03-06T05:28:22;18.17;;;9.70;;
21337;SDS011;72379;50.880;4.350;2024-03-06T05:30:49;21.57;;;9.67;;
21337;SDS011;72379;50.880;4.350;2024-03-06T05:33:15;19.93;;;10.27;;
21337;SDS011;72379;50.880;4.350;2024-03-06T05:35:41;17.50;;;9.57;;
21337;SDS011;72379;50.880;4.350;2024-03-06T05:38:07;18.03;;;8.97;;
21337;SDS011;72379;50.880;4.350;2024-03-06T05:40:33;17.57;;;9.20;;
21337;SDS011;72379;50.880;4.350;2024-03-06T05:43:03;19.63;;;10.07;;
21337;SDS011;72379;50.880;4.350;2024-03-06T05:45:29;18.60;;;10.37;;
21337;SDS011;72379;50.880;4.350;2024-03-06T05:47:54;17.03;;;9.57;;
21337;SDS011;72379;50.880;4.350;2024-03-06T05:50:20;15.43;;;8.70;;
21337;SDS011;72379;50.880;4.350;2024-03-06T05:52:46;18.50;;;9.33;;
21337;SDS011;72379;50.880;4.350;2024-03-06T05:55:12;18.60;;;8.87;;
21337;SDS011;72379;50.880;4.350;2024-03-06T05:57:38;21.37;;;9.50;;
21337;SDS011;72379;50.880;4.350;2024-03-06T06:00:11;20.70;;;9.77;;
21337;SDS011;72379;50.880;4.350;2024-03-06T06:02:38;17.23;;;9.67;;
21337;SDS011;72379;50.880;4.350;2024-03-06T06:05:04;17.73;;;9.57;;
21337;SDS011;72379;50.880;4.350;2024-03-06T06:07:30;16.73;;;10.07;;
21337;SDS011;72379;50.880;4.350;2024-03-06T06:09:57;24.03;;;10.87;;
21337;SDS011;72379;50.880;4.350;2024-03-06T06:12:23;22.03;;;9.60;;
21337;SDS011;72379;50.880;4.350;2024-03-06T06:14:49;17.30;;;9.90;;
21337;SDS011;72379;50.880;4.350;2024-03-06T06:17:15;19.40;;;9.97;;
21337;SDS011;72379;50.880;4.350;2024-03-06T06:19:42;20.37;;;9.77;;
21337;SDS011;72379;50.880;4.350;2024-03-06T06:22:09;17.63;;;10.27;;
21337;SDS011;72379;50.880;4.350;2024-03-06T06:24:36;19.63;;;9.90;;
21337;SDS011;72379;50.880;4.350;2024-03-06T06:27:03;18.13;;;9.03;;
21337;SDS011;72379;50.880;4.350;2024-03-06T06:29:29;16.40;;;9.40;;
21337;SDS011;72379;50.880;4.350;2024-03-06T06:32:03;22.53;;;10.90;;
21337;SDS011;72379;50.880;4.350;2024-03-06T06:34:29;22.93;;;11.10;;
21337;SDS011;72379;50.880;4.350;2024-03-06T06:36:56;21.93;;;9.77;;
21337;SDS011;72379;50.880;4.350;2024-03-06T06:39:23;23.37;;;10.87;;
21337;SDS011;72379;50.880;4.350;2024-03-06T06:41:49;21.97;;;10.73;;
21337;SDS011;72379;50.880;4.350;2024-03-06T06:44:16;20.60;;;10.87;;
21337;SDS011;72379;50.880;4.350;2024-03-06T06:46:41;25.33;;;11.13;;
21337;SDS011;72379;50.880;4.350;2024-03-06T06:49:08;22.23;;;10.47;;
21337;SDS011;72379;50.880;4.350;2024-03-06T06:51:34;23.20;;;10.37;;
21337;SDS011;72379;50.880;4.350;2024-03-06T06:54:02;18.00;;;9.67;;
21337;SDS011;72379;50.880;4.350;2024-03-06T06:56:29;24.73;;;10.20;;
21337;SDS011;72379;50.880;4.350;2024-03-06T06:58:57;19.00;;;9.77;;
21337;SDS011;72379;50.880;4.350;2024-03-06T07:01:23;22.07;;;9.83;;
21337;SDS011;72379;50.880;4.350;2024-03-06T07:03:48;17.40;;;9.20;;
21337;SDS011;72379;50.880;4.350;2024-03-06T07:06:14;23.37;;;9.77;;
21337;SDS011;72379;50.880;4.350;2024-03-06T07:08:41;23.87;;;11.07;;
21337;SDS011;72379;50.880;4.350;2024-03-06T07:11:07;23.20;;;10.87;;
21337;SDS011;72379;50.880;4.350;2024-03-06T07:13:33;22.20;;;10.43;;
21337;SDS011;72379;50.880;4.350;2024-03-06T07:15:59;17.87;;;10.10;;
21337;SDS011;72379;50.880;4.350;2024-03-06T07:18:29;19.20;;;10.13;;
21337;SDS011;72379;50.880;4.350;2024-03-06T07:20:55;17.97;;;10.33;;
21337;SDS011;72379;50.880;4.350;2024-03-06T07:23:21;24.03;;;11.37;;
21337;SDS011;72379;50.880;4.350;2024-03-06T07:25:46;23.70;;;11.87;;
21337;SDS011;72379;50.880;4.350;2024-03-06T07:28:13;22.37;;;11.37;;
21337;SDS011;72379;50.880;4.350;2024-03-06T07:30:38;26.50;;;10.43;;
21337;SDS011;72379;50.880;4.350;2024-03-06T07:33:10;25.47;;;10.93;;
21337;SDS011;72379;50.880;4.350;2024-03-06T07:35:36;21.33;;;10.93;;
21337;SDS011;72379;50.880;4.350;2024-03-06T07:38:02;21.73;;;11.10;;
21337;SDS011;72379;50.880;4.350;2024-03-06T07:40:29;23.20;;;11.60;;
21337;SDS011;72379;50.880;4.350;2024-03-06T07:42:56;21.87;;;11.33;;
21337;SDS011;72379;50.880;4.350;2024-03-06T07:45:23;25.17;;;11.83;;
21337;SDS011;72379;50.880;4.350;2024-03-06T07:47:49;27.07;;;12.03;;
21337;SDS011;72379;50.880;4.350;2024-03-06T07:50:14;28.67;;;12.53;;
21337;SDS011;72379;50.880;4.350;2024-03-06T07:52:46;22.17;;;11.60;;
21337;SDS011;72379;50.880;4.350;2024-03-06T07:55:12;23.40;;;12.23;;
21337;SDS011;72379;50.880;4.350;2024-03-06T07:57:38;17.33;;;10.70;;
21337;SDS011;72379;50.880;4.350;2024-03-06T08:00:05;21.57;;;11.07;;
21337;SDS011;72379;50.880;4.350;2024-03-06T08:02:39;19.73;;;8.97;;
21337;SDS011;72379;50.880;4.350;2024-03-06T08:05:09;14.33;;;8.13;;
21337;SDS011;72379;50.880;4.350;2024-03-06T08:07:37;23.10;;;10.77;;
21337;SDS011;72379;50.880;4.350;2024-03-06T08:10:07;16.37;;;9.20;;
21337;SDS011;72379;50.880;4.350;2024-03-06T08:12:42;16.03;;;9.47;;
21337;SDS011;72379;50.880;4.350;2024-03-06T08:15:10;14.63;;;8.53;;
21337;SDS011;72379;50.880;4.350;2024-03-06T08:17:37;16.70;;;9.23;;
21337;SDS011;72379;50.880;4.350;2024-03-06T08:20:04;17.70;;;9.00;;
21337;SDS011;72379;50.880;4.350;2024-03-06T08:22:33;15.97;;;9.00;;
21337;SDS011;72379;50.880;4.350;2024-03-06T08:25:06;15.60;;;9.07;;
21337;SDS011;72379;50.880;4.350;2024-03-06T08:27:34;19.17;;;9.47;;
21337;SDS011;72379;50.880;4.350;2024-03-06T08:30:01;25.37;;;9.77;;
21337;SDS011;72379;50.880;4.350;2024-03-06T08:32:32;17.13;;;9.50;;
21337;SDS011;72379;50.880;4.350;2024-03-06T08:35:02;21.77;;;10.10;;
21337;SDS011;72379;50.880;4.350;2024-03-06T08:37:30;23.07;;;11.23;;
21337;SDS011;72379;50.880;4.350;2024-03-06T08:39:59;17.63;;;9.40;;
21337;SDS011;72379;50.880;4.350;2024-03-06T08:42:26;13.73;;;7.93;;
21337;SDS011;72379;50.880;4.350;2024-03-06T08:44:52;23.40;;;9.57;;
21337;SDS011;72379;50.880;4.350;2024-03-06T08:47:18;19.93;;;9.67;;
21337;SDS011;72379;50.880;4.350;2024-03-06T08:49:45;16.93;;;8.70;;
21337;SDS011;72379;50.880;4.350;2024-03-06T08:52:11;20.40;;;8.33;;
21337;SDS011;72379;50.880;4.350;2024-03-06T08:54:38;13.57;;;7.63;;
21337;SDS011;72379;50.880;4.350;2024-03-06T08:57:06;15.60;;;8.00;;
21337;SDS011;72379;50.880;4.350;2024-03-06T08:59:33;12.77;;;7.53;;
21337;SDS011;72379;50.880;4.350;2024-03-06T09:02:11;13.87;;;7.67;;
21337;SDS011;72379;50.880;4.350;2024-03-06T09:04:38;12.87;;;7.13;;
21337;SDS011;72379;50.880;4.350;2024-03-06T09:07:04;15.67;;;7.83;;
21337;SDS011;72379;50.880;4.350;2024-03-06T09:09:29;13.30;;;7.70;;
21337;SDS011;72379;50.880;4.350;2024-03-06T09:11:55;16.53;;;6.63;;
21337;SDS011;72379;50.880;4.350;2024-03-06T09:14:21;12.87;;;7.67;;
21337;SDS011;72379;50.880;4.350;2024-03-06T09:16:48;12.03;;;7.23;;
21337;SDS011;72379;50.880;4.350;2024-03-06T09:19:13;10.53;;;7.17;;
21337;SDS011;72379;50.880;4.350;2024-03-06T09:21:40;12.80;;;7.33;;
21337;SDS011;72379;50.880;4.350;2024-03-06T09:24:06;12.40;;;7.40;;
21337;SDS011;72379;50.880;4.350;2024-03-06T09:26:32;13.30;;;7.30;;
21337;SDS011;72379;50.880;4.350;2024-03-06T09:28:58;12.40;;;7.37;;
21337;SDS011;72379;50.880;4.350;2024-03-06T09:31:24;11.60;;;7.37;;
21337;SDS011;72379;50.880;4.350;2024-03-06T09:33:50;15.90;;;7.80;;
21337;SDS011;72379;50.880;4.350;2024-03-06T09:36:16;13.27;;;7.47;;
21337;SDS011;72379;50.880;4.350;2024-03-06T09:38:41;9.97;;;6.70;;
21337;SDS011;72379;50.880;4.350;2024-03-06T09:41:08;14.57;;;7.90;;
21337;SDS011;72379;50.880;4.350;2024-03-06T09:43:34;13.10;;;7.53;;
21337;SDS011;72379;50.880;4.350;2024-03-06T09:46:00;13.97;;;8.07;;
21337;SDS011;72379;50.880;4.350;2024-03-06T09:48:27;16.80;;;8.07;;
21337;SDS011;72379;50.880;4.350;2024-03-06T09:50:57;11.63;;;7.53;;
21337;SDS011;72379;50.880;4.350;2024-03-06T09:53:26;15.30;;;7.43;;
21337;SDS011;72379;50.880;4.350;2024-03-06T09:55:53;12.70;;;7.23;;
21337;SDS011;72379;50.880;4.350;2024-03-06T09:58:21;10.47;;;7.53;;
21337;SDS011;72379;50.880;4.350;2024-03-06T10:00:47;15.17;;;7.00;;
21337;SDS011;72379;50.880;4.350;2024-03-06T10:03:15;12.73;;;6.67;;
21337;SDS011;72379;50.880;4.350;2024-03-06T10:05:41;13.47;;;8.50;;
21337;SDS011;72379;50.880;4.350;2024-03-06T10:08:08;14.40;;;8.07;;
21337;SDS011;72379;50.880;4.350;2024-03-06T10:10:35;17.13;;;7.20;;
21337;SDS011;72379;50.880;4.350;2024-03-06T10:13:02;12.57;;;6.80;;
21337;SDS011;72379;50.880;4.350;2024-03-06T10:15:28;13.53;;;6.30;;
21337;SDS011;72379;50.880;4.350;2024-03-06T10:18:09;15.50;;;7.10;;
21337;SDS011;72379;50.880;4.350;2024-03-06T10:20:37;13.00;;;6.70;;
21337;SDS011;72379;50.880;4.350;2024-03-06T10:23:03;14.57;;;7.07;;
21337;SDS011;72379;50.880;4.350;2024-03-06T10:25:29;11.30;;;7.47;;
21337;SDS011;72379;50.880;4.350;2024-03-06T10:28:28;12.07;;;7.27;;
21337;SDS011;72379;50.880;4.350;2024-03-06T10:30:48;11.43;;;7.17;;
21337;SDS011;72379;50.880;4.350;2024-03-06T10:33:16;13.27;;;7.40;;
21337;SDS011;72379;50.880;4.350;2024-03-06T10:35:46;14.83;;;7.07;;
21337;SDS011;72379;50.880;4.350;2024-03-06T10:38:18;11.23;;;7.23;;
21337;SDS011;72379;50.880;4.350;2024-03-06T10:40:45;11.10;;;7.17;;
21337;SDS011;72379;50.880;4.350;2024-03-06T10:43:11;14.33;;;7.33;;
21337;SDS011;72379;50.880;4.350;2024-03-06T10:48:30;13.00;;;5.63;;
21337;SDS011;72379;50.880;4.350;2024-03-06T10:50:57;9.70;;;5.73;;
21337;SDS011;72379;50.880;4.350;2024-03-06T10:53:24;11.43;;;6.33;;
21337;SDS011;72379;50.880;4.350;2024-03-06T10:55:52;10.90;;;6.40;;
21337;SDS011;72379;50.880;4.350;2024-03-06T10:58:20;12.33;;;5.73;;
21337;SDS011;72379;50.880;4.350;2024-03-06T11:00:46;12.90;;;5.30;;
21337;SDS011;72379;50.880;4.350;2024-03-06T11:03:14;11.53;;;5.37;;
21337;SDS011;72379;50.880;4.350;2024-03-06T11:05:40;11.17;;;4.83;;
21337;SDS011;72379;50.880;4.350;2024-03-06T11:08:07;9.67;;;5.27;;
21337;SDS011;72379;50.880;4.350;2024-03-06T11:10:35;7.90;;;4.80;;
21337;SDS011;72379;50.880;4.350;2024-03-06T11:13:08;7.57;;;5.10;;
21337;SDS011;72379;50.880;4.350;2024-03-06T11:15:56;10.80;;;4.70;;
21337;SDS011;72379;50.880;4.350;2024-03-06T11:23:33;8.87;;;5.60;;
21337;SDS011;72379;50.880;4.350;2024-03-06T11:26:00;9.80;;;5.13;;
21337;SDS011;72379;50.880;4.350;2024-03-06T11:28:33;11.53;;;5.90;;
21337;SDS011;72379;50.880;4.350;2024-03-06T11:31:07;8.63;;;4.13;;
21337;SDS011;72379;50.880;4.350;2024-03-06T11:38:57;9.83;;;4.70;;
21337;SDS011;72379;50.880;4.350;2024-03-06T11:41:25;9.97;;;4.40;;
21337;SDS011;72379;50.880;4.350;2024-03-06T11:43:53;7.50;;;4.20;;
21337;SDS011;72379;50.880;4.350;2024-03-06T11:46:40;11.83;;;4.87;;
21337;SDS011;72379;50.880;4.350;2024-03-06T11:49:16;5.43;;;3.93;;
21337;SDS011;72379;50.880;4.350;2024-03-06T11:51:45;5.70;;;3.40;;
21337;SDS011;72379;50.880;4.350;2024-03-06T11:54:12;11.37;;;3.90;;
21337;SDS011;72379;50.880;4.350;2024-03-06T11:56:42;8.43;;;3.30;;
21337;SDS011;72379;50.880;4.350;2024-03-06T11:59:09;10.10;;;4.30;;
21337;SDS011;72379;50.880;4.350;2024-03-06T12:01:36;9.33;;;4.07;;
21337;SDS011;72379;50.880;4.350;2024-03-06T12:04:03;7.33;;;3.67;;
21337;SDS011;72379;50.880;4.350;2024-03-06T12:06:32;8.10;;;3.30;;
21337;SDS011;72379;50.880;4.350;2024-03-06T12:08:58;8.77;;;3.37;;
21337;SDS011;72379;50.880;4.350;2024-03-06T12:11:24;11.00;;;3.30;;
21337;SDS011;72379;50.880;4.350;2024-03-06T12:13:52;9.90;;;3.47;;
21337;SDS011;72379;50.880;4.350;2024-03-06T12:16:18;9.20;;;3.73;;
21337;SDS011;72379;50.880;4.350;2024-03-06T12:18:45;10.30;;;4.27;;
21337;SDS011;72379;50.880;4.350;2024-03-06T12:21:13;10.67;;;4.30;;
21337;SDS011;72379;50.880;4.350;2024-03-06T12:23:39;9.53;;;4.27;;
21337;SDS011;72379;50.880;4.350;2024-03-06T12:26:06;9.27;;;4.33;;
21337;SDS011;72379;50.880;4.350;2024-03-06T12:28:39;7.17;;;4.50;;
21337;SDS011;72379;50.880;4.350;2024-03-06T12:31:05;13.13;;;4.23;;
21337;SDS011;72379;50.880;4.350;2024-03-06T12:33:33;10.27;;;4.10;;
21337;SDS011;72379;50.880;4.350;2024-03-06T12:36:00;7.43;;;3.90;;
21337;SDS011;72379;50.880;4.350;2024-03-06T12:38:30;9.70;;;4.70;;
21337;SDS011;72379;50.880;4.350;2024-03-06T12:40:56;9.47;;;4.70;;
21337;SDS011;72379;50.880;4.350;2024-03-06T12:43:23;6.17;;;3.87;;
21337;SDS011;72379;50.880;4.350;2024-03-06T12:45:50;13.17;;;4.53;;
21337;SDS011;72379;50.880;4.350;2024-03-06T12:48:19;10.07;;;5.00;;
21337;SDS011;72379;50.880;4.350;2024-03-06T12:50:45;11.20;;;4.40;;
21337;SDS011;72379;50.880;4.350;2024-03-06T12:53:16;10.90;;;5.40;;
21337;SDS011;72379;50.880;4.350;2024-03-06T12:55:42;11.43;;;4.70;;
21337;SDS011;72379;50.880;4.350;2024-03-06T12:58:16;12.47;;;4.63;;
21337;SDS011;72379;50.880;4.350;2024-03-06T13:03:11;8.57;;;4.43;;
21337;SDS011;72379;50.880;4.350;2024-03-06T13:05:37;10.17;;;4.60;;
21337;SDS011;72379;50.880;4.350;2024-03-06T13:08:03;7.07;;;4.17;;
21337;SDS011;72379;50.880;4.350;2024-03-06T13:10:29;9.13;;;4.10;;
21337;SDS011;72379;50.880;4.350;2024-03-06T13:12:55;12.37;;;4.77;;
21337;SDS011;72379;50.880;4.350;2024-03-06T13:15:20;9.53;;;4.10;;
21337;SDS011;72379;50.880;4.350;2024-03-06T13:17:47;6.73;;;3.60;;
21337;SDS011;72379;50.880;4.350;2024-03-06T13:20:13;10.13;;;4.20;;
21337;SDS011;72379;50.880;4.350;2024-03-06T13:22:39;7.63;;;3.77;;
21337;SDS011;72379;50.880;4.350;2024-03-06T13:25:06;9.37;;;3.83;;
21337;SDS011;72379;50.880;4.350;2024-03-06T13:27:32;9.67;;;3.70;;
21337;SDS011;72379;50.880;4.350;2024-03-06T13:29:58;11.93;;;3.97;;
21337;SDS011;72379;50.880;4.350;2024-03-06T13:32:24;8.87;;;3.57;;
21337;SDS011;72379;50.880;4.350;2024-03-06T13:34:51;9.37;;;4.10;;
21337;SDS011;72379;50.880;4.350;2024-03-06T13:37:17;9.57;;;4.50;;
21337;SDS011;72379;50.880;4.350;2024-03-06T13:39:43;10.13;;;4.87;;
21337;SDS011;72379;50.880;4.350;2024-03-06T13:42:10;10.73;;;4.70;;
21337;SDS011;72379;50.880;4.350;2024-03-06T13:44:35;8.37;;;4.50;;
21337;SDS011;72379;50.880;4.350;2024-03-06T13:47:02;16.17;;;4.60;;
21337;SDS011;72379;50.880;4.350;2024-03-06T13:52:04;7.50;;;4.20;;
21337;SDS011;72379;50.880;4.350;2024-03-06T13:54:32;9.13;;;4.50;;
21337;SDS011;72379;50.880;4.350;2024-03-06T13:57:04;14.43;;;5.20;;
21337;SDS011;72379;50.880;4.350;2024-03-06T13:59:30;7.97;;;4.30;;
21337;SDS011;72379;50.880;4.350;2024-03-06T14:01:57;11.20;;;5.13;;
21337;SDS011;72379;50.880;4.350;2024-03-06T14:04:24;8.00;;;4.33;;
21337;SDS011;72379;50.880;4.350;2024-03-06T14:06:50;14.17;;;5.03;;
21337;SDS011;72379;50.880;4.350;2024-03-06T14:09:16;8.67;;;4.40;;
21337;SDS011;72379;50.880;4.350;2024-03-06T14:11:43;13.50;;;4.73;;
21337;SDS011;72379;50.880;4.350;2024-03-06T14:14:09;8.43;;;4.90;;
21337;SDS011;72379;50.880;4.350;2024-03-06T14:16:36;15.60;;;5.07;;
21337;SDS011;72379;50.880;4.350;2024-03-06T14:19:05;9.43;;;4.60;;
21337;SDS011;72379;50.880;4.350;2024-03-06T14:21:30;9.50;;;4.43;;
21337;SDS011;72379;50.880;4.350;2024-03-06T14:23:59;9.73;;;4.40;;
21337;SDS011;72379;50.880;4.350;2024-03-06T14:26:29;9.23;;;5.27;;
21337;SDS011;72379;50.880;4.350;2024-03-06T14:28:55;10.63;;;4.87;;
21337;SDS011;72379;50.880;4.350;2024-03-06T14:31:22;8.53;;;4.70;;
21337;SDS011;72379;50.880;4.350;2024-03-06T14:33:48;9.80;;;5.10;;
21337;SDS011;72379;50.880;4.350;2024-03-06T14:36:15;6.93;;;4.43;;
21337;SDS011;72379;50.880;4.350;2024-03-06T14:38:44;10.27;;;4.20;;
21337;SDS011;72379;50.880;4.350;2024-03-06T14:41:16;10.57;;;4.50;;
21337;SDS011;72379;50.880;4.350;2024-03-06T14:43:44;9.13;;;4.70;;
21337;SDS011;72379;50.880;4.350;2024-03-06T14:46:11;11.67;;;4.83;;
21337;SDS011;72379;50.880;4.350;2024-03-06T14:48:40;12.30;;;4.70;;
21337;SDS011;72379;50.880;4.350;2024-03-06T14:51:06;12.77;;;4.63;;
21337;SDS011;72379;50.880;4.350;2024-03-06T14:53:33;10.57;;;4.30;;
21337;SDS011;72379;50.880;4.350;2024-03-06T14:56:01;9.57;;;4.23;;